Time;durP1;ratioP1;P1;durP2;ratioP2;P2;SDS_P1;SDS_P2;PMS_P1;PMS_P2;Temp;Humidity;BMP_temperature;BMP_pressure;BME280_temperature;BME280_humidity;BME280_pressure;Samples;Min_cycle;Max_cycle;Signal;HPM_P1;HPM_P2
2022/01/05 07:42:19;;;;;;;10.45;2.50;;;;;;;;;;5144487;27;20374;-77
2022/01/05 07:44:44;;;;;;;9.35;2.60;;;;;;;;;;5146919;27;20096;-76
2022/01/05 07:47:10;;;;;;;13.25;2.35;;;;;;;;;;5132085;27;20023;-77
2022/01/05 07:49:37;;;;;;;9.63;2.03;;;;;;;;;;5149232;27;20019;-78
2022/01/05 07:52:03;;;;;;;8.07;2.08;;;;;;;;;;5149604;27;20458;-76
2022/01/05 07:54:29;;;;;;;5.97;1.95;;;;;;;;;;5149560;27;20051;-76
2022/01/05 07:56:54;;;;;;;8.70;2.00;;;;;;;;;;5149112;27;20460;-78
2022/01/05 07:59:19;;;;;;;4.93;1.80;;;;;;;;;;5131668;27;20505;-80
2022/01/05 08:01:45;;;;;;;10.15;2.30;;;;;;;;;;5150289;27;20023;-78
2022/01/05 08:04:10;;;;;;;7.30;2.38;;;;;;;;;;5149209;27;20370;-78
2022/01/05 08:06:36;;;;;;;8.52;2.47;;;;;;;;;;5149330;27;20050;-78
2022/01/05 08:09:01;;;;;;;8.40;1.90;;;;;;;;;;5150648;27;20018;-79
2022/01/05 08:11:27;;;;;;;6.60;1.55;;;;;;;;;;5148335;27;20034;-79
2022/01/05 08:13:52;;;;;;;4.93;1.90;;;;;;;;;;5148808;27;20031;-79
2022/01/05 08:16:18;;;;;;;6.57;1.67;;;;;;;;;;5150808;27;20031;-80
2022/01/05 08:18:44;;;;;;;4.63;1.55;;;;;;;;;;5152253;27;20052;-79
2022/01/05 08:21:11;;;;;;;7.50;2.28;;;;;;;;;;5149261;27;20370;-79
2022/01/05 08:23:38;;;;;;;5.80;1.70;;;;;;;;;;5116612;27;20039;-78
2022/01/05 08:26:06;;;;;;;4.70;1.70;;;;;;;;;;5117028;27;20098;-79
2022/01/05 08:28:34;;;;;;;6.35;1.85;;;;;;;;;;5134148;27;20027;-79
2022/01/05 08:31:00;;;;;;;5.95;2.22;;;;;;;;;;5134029;27;20023;-78
2022/01/05 08:33:25;;;;;;;4.53;1.60;;;;;;;;;;5114806;27;20024;-78
2022/01/05 08:35:51;;;;;;;6.45;2.10;;;;;;;;;;5114394;27;20022;-78
2022/01/05 08:38:17;;;;;;;6.70;1.92;;;;;;;;;;5149050;27;20030;-78
2022/01/05 08:40:43;;;;;;;4.93;1.60;;;;;;;;;;5130335;27;20054;-79
2022/01/05 08:43:10;;;;;;;5.45;1.83;;;;;;;;;;5150121;27;20129;-78
2022/01/05 08:45:36;;;;;;;11.68;1.90;;;;;;;;;;5151378;27;20023;-80
2022/01/05 08:48:02;;;;;;;8.15;1.60;;;;;;;;;;5115742;27;20037;-79
2022/01/05 08:50:30;;;;;;;4.18;1.60;;;;;;;;;;5132720;27;20061;-78
2022/01/05 08:52:57;;;;;;;7.97;1.92;;;;;;;;;;5140705;27;20092;-78
2022/01/05 08:55:27;;;;;;;6.07;1.95;;;;;;;;;;5136402;27;20418;-78
2022/01/05 08:57:53;;;;;;;7.00;2.30;;;;;;;;;;5136153;27;20098;-78
2022/01/05 09:00:19;;;;;;;6.05;2.08;;;;;;;;;;5119254;27;20114;-78
2022/01/05 09:02:44;;;;;;;4.68;1.73;;;;;;;;;;5136261;27;20039;-79
2022/01/05 09:05:10;;;;;;;8.35;2.63;;;;;;;;;;5135879;27;20027;-79
2022/01/05 09:07:35;;;;;;;6.72;1.63;;;;;;;;;;5118581;27;20030;-80
2022/01/05 09:10:04;;;;;;;10.25;2.50;;;;;;;;;;5137215;27;20027;-81
2022/01/05 09:12:30;;;;;;;9.65;1.75;;;;;;;;;;5137225;27;20494;-80
2022/01/05 09:14:55;;;;;;;6.45;2.03;;;;;;;;;;5118916;27;20049;-80
2022/01/05 09:17:21;;;;;;;4.32;1.90;;;;;;;;;;5136498;27;20062;-80
2022/01/05 09:19:46;;;;;;;6.43;1.80;;;;;;;;;;5136838;27;20027;-80
2022/01/05 09:22:12;;;;;;;6.88;1.90;;;;;;;;;;5135600;27;20039;-80
2022/01/05 09:24:39;;;;;;;4.40;1.95;;;;;;;;;;5118356;27;20439;-79
2022/01/05 09:27:06;;;;;;;4.97;1.88;;;;;;;;;;5136016;27;20385;-79
2022/01/05 09:29:32;;;;;;;5.47;1.90;;;;;;;;;;5135425;27;20065;-81
2022/01/05 09:32:03;;;;;;;8.13;1.98;;;;;;;;;;5118383;27;20046;-79
2022/01/05 09:34:32;;;;;;;9.10;2.33;;;;;;;;;;5135438;27;20015;-79
2022/01/05 09:37:03;;;;;;;11.77;2.28;;;;;;;;;;5118157;27;20027;-77
2022/01/05 09:42:14;;;;;;;8.45;2.20;;;;;;;;;;5136058;27;20073;-77
2022/01/05 09:44:44;;;;;;;7.68;2.40;;;;;;;;;;5135182;27;20027;-78
2022/01/05 09:47:31;;;;;;;7.93;1.83;;;;;;;;;;5117761;27;20031;-77
2022/01/05 09:50:06;;;;;;;8.00;2.20;;;;;;;;;;5135304;27;20023;-76
2022/01/05 09:52:33;;;;;;;7.25;2.00;;;;;;;;;;5135254;27;20050;-76
2022/01/05 09:54:59;;;;;;;8.23;2.20;;;;;;;;;;5135175;27;20058;-78
2022/01/05 09:57:24;;;;;;;7.38;2.88;;;;;;;;;;5134768;27;20065;-78
2022/01/05 09:59:51;;;;;;;5.65;1.92;;;;;;;;;;5117447;27;20030;-77
2022/01/05 10:02:18;;;;;;;6.80;2.20;;;;;;;;;;5135090;27;20050;-77
2022/01/05 10:04:44;;;;;;;6.47;1.88;;;;;;;;;;5133790;27;20056;-77
2022/01/05 10:07:10;;;;;;;16.75;2.28;;;;;;;;;;5134926;27;20148;-77
2022/01/05 10:09:37;;;;;;;13.55;2.50;;;;;;;;;;5134539;27;20052;-77
2022/01/05 10:12:03;;;;;;;10.30;2.75;;;;;;;;;;5135997;27;20490;-77
2022/01/05 10:14:30;;;;;;;11.57;2.42;;;;;;;;;;5134536;27;20027;-76
2022/01/05 10:17:03;;;;;;;8.70;2.05;;;;;;;;;;5100644;27;20030;-77
2022/01/05 10:19:29;;;;;;;10.65;2.60;;;;;;;;;;5135942;27;20023;-77
2022/01/05 10:21:56;;;;;;;12.57;2.35;;;;;;;;;;5135560;27;20439;-77
2022/01/05 10:24:42;;;;;;;12.80;3.08;;;;;;;;;;5135722;27;20023;-77
2022/01/05 10:27:07;;;;;;;8.98;1.80;;;;;;;;;;5136148;27;20052;-77
2022/01/05 10:29:33;;;;;;;8.88;2.20;;;;;;;;;;5134740;27;20027;-78
2022/01/05 10:32:01;;;;;;;6.22;2.22;;;;;;;;;;5135247;27;20533;-80
2022/01/05 10:34:32;;;;;;;8.60;2.03;;;;;;;;;;5135864;27;20208;-78
2022/01/05 10:37:06;;;;;;;8.98;2.03;;;;;;;;;;5118489;27;20411;-78
2022/01/05 10:39:35;;;;;;;8.15;1.95;;;;;;;;;;5134640;27;20019;-78
2022/01/05 10:42:11;;;;;;;8.05;2.03;;;;;;;;;;5116866;27;20051;-78
2022/01/05 10:44:37;;;;;;;10.23;2.00;;;;;;;;;;5135724;27;20019;-77
2022/01/05 10:47:05;;;;;;;9.63;2.42;;;;;;;;;;5134234;27;20031;-77
2022/01/05 10:49:36;;;;;;;14.65;2.20;;;;;;;;;;5134274;27;20022;-77
2022/01/05 10:52:23;;;;;;;10.10;2.17;;;;;;;;;;5116808;27;20019;-79
2022/01/05 10:54:50;;;;;;;14.90;1.90;;;;;;;;;;5135793;27;20027;-80
2022/01/05 10:57:16;;;;;;;4.85;2.00;;;;;;;;;;5133941;27;20027;-78
2022/01/05 10:59:45;;;;;;;7.20;2.08;;;;;;;;;;5133871;27;20470;-79
2022/01/05 11:02:31;;;;;;;11.35;2.63;;;;;;;;;;5134156;27;20469;-78
2022/01/05 11:05:05;;;;;;;10.80;2.65;;;;;;;;;;5134005;27;20023;-79
2022/01/05 11:07:32;;;;;;;9.73;2.42;;;;;;;;;;5134251;27;20054;-81
2022/01/05 11:10:00;;;;;;;16.90;2.75;;;;;;;;;;5116446;27;20122;-79
2022/01/05 11:12:36;;;;;;;12.45;2.83;;;;;;;;;;5133821;27;20027;-79
2022/01/05 11:15:24;;;;;;;12.40;2.33;;;;;;;;;;5134689;27;20447;-78
2022/01/05 11:18:19;;;;;;;6.68;2.60;;;;;;;;;;5133918;27;20420;-79
2022/01/05 11:20:50;;;;;;;;;;;;;;;;;;5116624;27;20460;-79
2022/01/05 11:23:17;;;;;;;12.65;2.95;;;;;;;;;;5116701;28;20370;-79
2022/01/05 11:25:45;;;;;;;11.20;2.63;;;;;;;;;;5116222;27;20035;-78
2022/01/05 11:28:11;;;;;;;8.68;1.77;;;;;;;;;;5133669;27;20023;-78
2022/01/05 11:30:38;;;;;;;5.25;2.15;;;;;;;;;;5133703;27;20106;-78
2022/01/05 11:33:05;;;;;;;12.23;2.63;;;;;;;;;;5133481;27;20515;-78
2022/01/05 11:35:30;;;;;;;9.27;2.20;;;;;;;;;;5115974;27;20022;-78
2022/01/05 11:37:56;;;;;;;9.13;2.33;;;;;;;;;;5133954;27;20084;-78
2022/01/05 11:40:22;;;;;;;11.20;2.67;;;;;;;;;;5133528;28;20050;-77
2022/01/05 11:42:49;;;;;;;8.00;2.50;;;;;;;;;;5136398;27;20474;-79
2022/01/05 11:45:44;;;;;;;10.73;2.47;;;;;;;;;;5134288;28;20025;-78
2022/01/05 11:48:20;;;;;;;14.93;2.47;;;;;;;;;;5134391;27;20026;-79
2022/01/05 11:51:04;;;;;;;10.68;2.83;;;;;;;;;;5133007;28;20023;-77
2022/01/05 11:53:43;;;;;;;11.07;3.88;;;;;;;;;;5132995;28;20029;-77
2022/01/05 11:56:13;;;;;;;11.07;3.53;;;;;;;;;;5134809;27;20023;-76
2022/01/05 11:58:50;;;;;;;9.80;4.13;;;;;;;;;;5134159;28;20071;-77
2022/01/05 12:01:16;;;;;;;10.05;4.72;;;;;;;;;;5115802;28;20019;-77
2022/01/05 12:04:01;;;;;;;13.50;5.50;;;;;;;;;;5132867;28;20072;-77
2022/01/05 12:06:32;;;;;;;15.60;5.97;;;;;;;;;;5134600;27;20019;-77
2022/01/05 12:08:59;;;;;;;12.93;5.78;;;;;;;;;;5116148;28;20049;-78
2022/01/05 12:11:38;;;;;;;18.02;7.43;;;;;;;;;;5126857;28;20477;-77
2022/01/05 12:14:23;;;;;;;42.13;17.60;;;;;;;;;;5128527;28;20053;-79
2022/01/05 12:19:26;;;;;;;69.32;34.95;;;;;;;;;;5135307;27;20042;-77
2022/01/05 12:21:57;;;;;;;97.72;45.58;;;;;;;;;;5133119;28;20023;-78
2022/01/05 12:25:00;;;;;;;109.22;59.63;;;;;;;;;;5133383;28;20023;-78
2022/01/05 12:27:27;;;;;;;148.27;76.53;;;;;;;;;;5133595;27;20047;-78
2022/01/05 12:29:54;;;;;;;129.73;69.90;;;;;;;;;;5119337;27;20431;-78
2022/01/05 12:32:39;;;;;;;122.25;59.67;;;;;;;;;;5136848;27;20047;-77
2022/01/05 12:35:19;;;;;;;145.00;75.80;;;;;;;;;;5137962;27;20447;-77
2022/01/05 12:37:54;;;;;;;144.55;76.22;;;;;;;;;;5137904;27;20040;-78
2022/01/05 12:40:37;;;;;;;145.10;73.78;;;;;;;;;;5137003;27;20075;-77
2022/01/05 12:43:08;;;;;;;125.88;65.38;;;;;;;;;;5119046;27;20031;-77
2022/01/05 12:45:57;;;;;;;144.23;75.68;;;;;;;;;;5137677;27;20100;-79
2022/01/05 12:51:20;;;;;;;129.57;68.28;;;;;;;;;;5137595;27;20378;-79
2022/01/05 12:54:06;;;;;;;133.20;68.20;;;;;;;;;;5136107;27;20027;-79
2022/01/05 12:56:42;;;;;;;128.68;67.53;;;;;;;;;;5136705;27;20015;-78
2022/01/05 12:59:29;;;;;;;125.95;68.15;;;;;;;;;;5136108;27;20023;-79
2022/01/05 13:02:03;;;;;;;121.38;63.35;;;;;;;;;;5136885;27;20509;-79
2022/01/05 13:04:29;;;;;;;129.82;65.63;;;;;;;;;;5137166;27;20027;-79
2022/01/05 13:06:59;;;;;;;119.00;61.13;;;;;;;;;;5118738;27;20060;-79
2022/01/05 13:09:30;;;;;;;114.93;58.33;;;;;;;;;;5136041;27;20023;-79
2022/01/05 13:12:01;;;;;;;102.88;52.72;;;;;;;;;;5119105;27;20393;-78
2022/01/05 13:14:30;;;;;;;92.18;51.88;;;;;;;;;;5137382;27;20038;-79
2022/01/05 13:16:59;;;;;;;98.28;51.22;;;;;;;;;;5135866;27;20492;-79
2022/01/05 13:19:39;;;;;;;106.13;54.42;;;;;;;;;;5137327;27;20019;-79
2022/01/05 13:22:10;;;;;;;96.75;51.25;;;;;;;;;;5136057;27;20053;-78
2022/01/05 13:24:41;;;;;;;106.78;56.42;;;;;;;;;;5136923;27;20149;-79
2022/01/05 13:27:08;;;;;;;97.05;48.42;;;;;;;;;;5137009;27;20473;-79
2022/01/05 13:29:34;;;;;;;78.43;45.47;;;;;;;;;;5136030;27;20031;-78
2022/01/05 13:32:02;;;;;;;100.53;49.45;;;;;;;;;;5136280;27;20516;-79
2022/01/05 13:34:41;;;;;;;97.18;52.33;;;;;;;;;;5135946;27;20051;-78
2022/01/05 13:37:07;;;;;;;86.43;44.40;;;;;;;;;;5118492;27;20023;-79
2022/01/05 13:39:47;;;;;;;81.93;43.42;;;;;;;;;;5135550;27;20114;-79
2022/01/05 13:42:29;;;;;;;85.38;44.63;;;;;;;;;;5135014;27;20049;-78
2022/01/05 13:44:55;;;;;;;76.43;41.00;;;;;;;;;;5135473;27;20369;-79
2022/01/05 13:47:22;;;;;;;78.15;43.25;;;;;;;;;;5118071;27;20098;-78
2022/01/05 13:50:20;;;;;;;63.65;36.58;;;;;;;;;;5136635;27;20492;-79
2022/01/05 13:52:53;;;;;;;73.25;41.38;;;;;;;;;;5136167;27;20019;-77
2022/01/05 13:55:21;;;;;;;72.00;39.42;;;;;;;;;;5136589;27;20023;-78
2022/01/05 13:57:46;;;;;;;67.20;36.63;;;;;;;;;;5135333;27;20038;-79
2022/01/05 14:00:12;;;;;;;64.22;35.38;;;;;;;;;;5117723;27;20028;-78
2022/01/05 14:02:39;;;;;;;61.75;34.47;;;;;;;;;;5135671;27;20027;-78
2022/01/05 14:05:06;;;;;;;57.22;32.75;;;;;;;;;;5136205;27;20071;-78
2022/01/05 14:07:32;;;;;;;72.72;38.90;;;;;;;;;;5136873;27;20102;-78
2022/01/05 14:10:16;;;;;;;69.80;39.42;;;;;;;;;;5135633;27;20062;-78
2022/01/05 14:12:49;;;;;;;61.42;33.85;;;;;;;;;;5137367;27;20027;-77
2022/01/05 14:15:17;;;;;;;62.83;35.42;;;;;;;;;;5137294;27;20019;-78
2022/01/05 14:18:12;;;;;;;54.97;32.25;;;;;;;;;;5125040;27;20026;-78
2022/01/05 14:20:47;;;;;;;57.17;32.67;;;;;;;;;;5136265;27;20045;-78
2022/01/05 14:23:17;;;;;;;57.25;32.08;;;;;;;;;;5135248;27;20019;-78
2022/01/05 14:25:57;;;;;;;53.67;30.95;;;;;;;;;;5118692;27;20027;-79
2022/01/05 14:28:28;;;;;;;52.83;28.48;;;;;;;;;;5135524;27;20039;-78
2022/01/05 14:30:56;;;;;;;47.63;27.38;;;;;;;;;;5136583;27;20019;-78
2022/01/05 14:33:29;;;;;;;57.83;29.70;;;;;;;;;;5136187;27;20026;-78
2022/01/05 14:35:56;;;;;;;60.95;34.25;;;;;;;;;;5134449;27;20035;-78
2022/01/05 14:38:21;;;;;;;53.30;32.00;;;;;;;;;;5135679;27;20417;-79
2022/01/05 14:40:48;;;;;;;63.38;34.80;;;;;;;;;;5134069;27;20027;-79
2022/01/05 14:43:14;;;;;;;56.78;31.15;;;;;;;;;;5134286;27;20027;-78
2022/01/05 14:45:41;;;;;;;56.03;31.48;;;;;;;;;;5135403;27;20091;-79
2022/01/05 14:48:07;;;;;;;53.00;32.22;;;;;;;;;;5135626;27;20617;-79
2022/01/05 14:50:32;;;;;;;44.67;26.23;;;;;;;;;;5137477;27;20104;-79
2022/01/05 14:53:00;;;;;;;44.97;24.55;;;;;;;;;;5135304;27;20092;-80
2022/01/05 14:55:27;;;;;;;48.90;29.50;;;;;;;;;;5118945;27;20033;-78
2022/01/05 14:57:53;;;;;;;45.83;29.02;;;;;;;;;;5135445;27;20031;-77
2022/01/05 15:00:18;;;;;;;48.33;25.58;;;;;;;;;;5134834;27;20096;-76
2022/01/05 15:02:44;;;;;;;42.78;24.02;;;;;;;;;;5134603;27;20039;-77
2022/01/05 15:05:09;;;;;;;38.50;21.13;;;;;;;;;;5134454;27;20037;-78
2022/01/05 15:07:35;;;;;;;33.30;17.17;;;;;;;;;;5135365;27;20027;-77
2022/01/05 15:10:00;;;;;;;29.15;16.67;;;;;;;;;;5133691;27;20023;-77
2022/01/05 15:12:25;;;;;;;32.20;15.15;;;;;;;;;;5099411;27;20019;-76
2022/01/05 15:14:51;;;;;;;31.40;16.63;;;;;;;;;;5135123;27;20047;-77
2022/01/05 15:17:17;;;;;;;30.70;15.63;;;;;;;;;;5133509;27;20038;-77
2022/01/05 15:19:42;;;;;;;20.48;11.40;;;;;;;;;;5133549;27;20080;-77
2022/01/05 15:22:10;;;;;;;22.55;12.43;;;;;;;;;;5135346;27;20096;-76
2022/01/05 15:24:35;;;;;;;24.98;12.63;;;;;;;;;;5134277;27;20030;-77
2022/01/05 15:27:00;;;;;;;19.75;9.70;;;;;;;;;;5116322;27;20588;-77
2022/01/05 15:29:27;;;;;;;20.13;11.75;;;;;;;;;;5116132;27;20019;-77
2022/01/05 15:31:52;;;;;;;21.10;10.40;;;;;;;;;;5099333;28;20038;-78
2022/01/05 15:34:18;;;;;;;19.38;9.50;;;;;;;;;;5133689;27;20039;-80
2022/01/05 15:36:43;;;;;;;20.13;10.18;;;;;;;;;;5133587;27;20038;-77
2022/01/05 15:39:08;;;;;;;20.85;9.98;;;;;;;;;;5133360;27;20019;-77
2022/01/05 15:41:34;;;;;;;22.13;9.48;;;;;;;;;;5134261;27;20046;-78
2022/01/05 15:43:59;;;;;;;22.55;8.80;;;;;;;;;;5117183;28;20089;-77
2022/01/05 15:46:25;;;;;;;17.90;8.10;;;;;;;;;;5134745;27;20099;-78
2022/01/05 15:48:51;;;;;;;16.85;7.45;;;;;;;;;;5133558;28;20385;-76
2022/01/05 15:51:18;;;;;;;20.95;8.93;;;;;;;;;;5134715;27;20019;-79
2022/01/05 15:53:44;;;;;;;16.75;7.60;;;;;;;;;;5115968;28;20496;-78
2022/01/05 15:56:19;;;;;;;22.83;7.90;;;;;;;;;;5116197;28;20023;-78
